sensor_id;sensor_type;location;lat;lon;timestamp;temperature;humidity
7129;DHT22;3606;52.930;8.644;2023-02-27T00:00:16;-3.30;99.90
7129;DHT22;3606;52.930;8.644;2023-02-27T00:02:43;-3.30;99.90
7129;DHT22;3606;52.930;8.644;2023-02-27T00:05:10;-3.40;99.90
7129;DHT22;3606;52.930;8.644;2023-02-27T00:07:36;-3.40;99.90
7129;DHT22;3606;52.930;8.644;2023-02-27T00:10:02;-3.40;99.90
7129;DHT22;3606;52.930;8.644;2023-02-27T00:12:28;-3.40;99.90
7129;DHT22;3606;52.930;8.644;2023-02-27T00:14:55;-3.40;99.90
7129;DHT22;3606;52.930;8.644;2023-02-27T00:17:20;-3.50;99.90
7129;DHT22;3606;52.930;8.644;2023-02-27T00:19:46;-3.50;99.90
7129;DHT22;3606;52.930;8.644;2023-02-27T00:22:11;-3.60;99.90
7129;DHT22;3606;52.930;8.644;2023-02-27T00:24:37;-3.60;99.90
7129;DHT22;3606;52.930;8.644;2023-02-27T00:27:02;-3.70;99.90
7129;DHT22;3606;52.930;8.644;2023-02-27T00:29:28;-3.80;99.90
7129;DHT22;3606;52.930;8.644;2023-02-27T00:31:53;-3.80;99.90
7129;DHT22;3606;52.930;8.644;2023-02-27T00:34:19;-3.80;99.90
7129;DHT22;3606;52.930;8.644;2023-02-27T00:36:45;-3.80;99.90
7129;DHT22;3606;52.930;8.644;2023-02-27T00:39:10;-3.80;99.90
7129;DHT22;3606;52.930;8.644;2023-02-27T00:41:36;-3.80;99.90
7129;DHT22;3606;52.930;8.644;2023-02-27T00:44:01;-3.80;99.90
7129;DHT22;3606;52.930;8.644;2023-02-27T00:46:27;-3.90;99.90
7129;DHT22;3606;52.930;8.644;2023-02-27T00:48:52;-4.00;99.90
7129;DHT22;3606;52.930;8.644;2023-02-27T00:51:18;-4.00;99.90
7129;DHT22;3606;52.930;8.644;2023-02-27T00:53:44;-4.00;99.90
7129;DHT22;3606;52.930;8.644;2023-02-27T00:56:10;-4.00;99.90
7129;DHT22;3606;52.930;8.644;2023-02-27T00:58:35;-4.00;99.90
7129;DHT22;3606;52.930;8.644;2023-02-27T01:01:01;-4.00;99.90
7129;DHT22;3606;52.930;8.644;2023-02-27T01:03:27;-4.10;99.90
7129;DHT22;3606;52.930;8.644;2023-02-27T01:05:53;-4.10;99.90
7129;DHT22;3606;52.930;8.644;2023-02-27T01:08:18;-4.10;99.90
7129;DHT22;3606;52.930;8.644;2023-02-27T01:10:45;-4.10;99.90
7129;DHT22;3606;52.930;8.644;2023-02-27T01:13:10;-4.20;99.90
7129;DHT22;3606;52.930;8.644;2023-02-27T01:15:36;-4.20;99.90
7129;DHT22;3606;52.930;8.644;2023-02-27T01:18:02;-4.20;99.90
7129;DHT22;3606;52.930;8.644;2023-02-27T01:20:27;-4.20;99.90
7129;DHT22;3606;52.930;8.644;2023-02-27T01:22:53;-4.20;99.90
7129;DHT22;3606;52.930;8.644;2023-02-27T01:25:18;-4.10;99.90
7129;DHT22;3606;52.930;8.644;2023-02-27T01:27:44;-4.10;99.90
7129;DHT22;3606;52.930;8.644;2023-02-27T01:30:10;-4.10;99.90
7129;DHT22;3606;52.930;8.644;2023-02-27T01:32:37;-4.10;99.90
7129;DHT22;3606;52.930;8.644;2023-02-27T01:35:03;-4.10;99.90
7129;DHT22;3606;52.930;8.644;2023-02-27T01:37:28;-4.10;99.90
7129;DHT22;3606;52.930;8.644;2023-02-27T01:39:54;-4.00;99.90
7129;DHT22;3606;52.930;8.644;2023-02-27T01:42:23;-4.00;99.90
7129;DHT22;3606;52.930;8.644;2023-02-27T01:47:39;-4.20;99.90
7129;DHT22;3606;52.930;8.644;2023-02-27T01:50:06;-4.20;99.90
7129;DHT22;3606;52.930;8.644;2023-02-27T01:52:33;-4.30;99.90
7129;DHT22;3606;52.930;8.644;2023-02-27T01:55:02;-4.30;99.90
7129;DHT22;3606;52.930;8.644;2023-02-27T01:57:28;-4.30;99.90
7129;DHT22;3606;52.930;8.644;2023-02-27T01:59:54;-4.30;99.90
7129;DHT22;3606;52.930;8.644;2023-02-27T02:02:26;-4.30;99.90
7129;DHT22;3606;52.930;8.644;2023-02-27T02:04:53;-4.30;99.90
7129;DHT22;3606;52.930;8.644;2023-02-27T02:07:20;-4.30;99.90
7129;DHT22;3606;52.930;8.644;2023-02-27T02:09:50;-4.30;99.90
7129;DHT22;3606;52.930;8.644;2023-02-27T02:12:19;-4.30;99.90
7129;DHT22;3606;52.930;8.644;2023-02-27T02:14:45;-4.30;99.90
7129;DHT22;3606;52.930;8.644;2023-02-27T02:28:59;-4.30;99.90
7129;DHT22;3606;52.930;8.644;2023-02-27T02:37:26;-4.30;99.90
7129;DHT22;3606;52.930;8.644;2023-02-27T02:40:27;-4.30;99.90
7129;DHT22;3606;52.930;8.644;2023-02-27T02:48:03;-4.40;99.90
7129;DHT22;3606;52.930;8.644;2023-02-27T02:59:32;-4.40;99.90
7129;DHT22;3606;52.930;8.644;2023-02-27T03:02:04;-4.50;99.90
7129;DHT22;3606;52.930;8.644;2023-02-27T03:04:36;-4.50;99.90
7129;DHT22;3606;52.930;8.644;2023-02-27T03:07:14;-4.50;99.90
7129;DHT22;3606;52.930;8.644;2023-02-27T03:09:48;-4.50;99.90
7129;DHT22;3606;52.930;8.644;2023-02-27T03:12:18;-4.50;99.90
7129;DHT22;3606;52.930;8.644;2023-02-27T03:20:22;-4.50;99.90
7129;DHT22;3606;52.930;8.644;2023-02-27T03:22:53;-4.50;99.90
7129;DHT22;3606;52.930;8.644;2023-02-27T03:25:21;-4.60;99.90
7129;DHT22;3606;52.930;8.644;2023-02-27T03:27:54;-4.60;99.90
7129;DHT22;3606;52.930;8.644;2023-02-27T03:30:40;-4.60;99.90
7129;DHT22;3606;52.930;8.644;2023-02-27T03:33:28;-4.60;99.90
7129;DHT22;3606;52.930;8.644;2023-02-27T03:36:14;-4.50;99.90
7129;DHT22;3606;52.930;8.644;2023-02-27T03:38:51;-4.50;99.90
7129;DHT22;3606;52.930;8.644;2023-02-27T03:41:40;-4.50;99.90
7129;DHT22;3606;52.930;8.644;2023-02-27T03:44:30;-4.50;99.90
7129;DHT22;3606;52.930;8.644;2023-02-27T03:46:54;-4.40;99.90
7129;DHT22;3606;52.930;8.644;2023-02-27T03:49:20;-4.50;99.90
7129;DHT22;3606;52.930;8.644;2023-02-27T03:51:46;-4.60;99.90
7129;DHT22;3606;52.930;8.644;2023-02-27T03:54:14;-4.60;99.90
7129;DHT22;3606;52.930;8.644;2023-02-27T03:56:43;-4.70;99.90
7129;DHT22;3606;52.930;8.644;2023-02-27T03:59:09;-4.70;99.90
7129;DHT22;3606;52.930;8.644;2023-02-27T04:01:35;-4.70;99.90
7129;DHT22;3606;52.930;8.644;2023-02-27T04:04:12;-4.70;99.90
7129;DHT22;3606;52.930;8.644;2023-02-27T04:06:41;-4.70;99.90
7129;DHT22;3606;52.930;8.644;2023-02-27T04:09:40;-4.70;99.90
7129;DHT22;3606;52.930;8.644;2023-02-27T04:17:28;-4.80;99.90
7129;DHT22;3606;52.930;8.644;2023-02-27T04:20:28;-4.80;99.90
7129;DHT22;3606;52.930;8.644;2023-02-27T04:23:09;-4.80;99.90
7129;DHT22;3606;52.930;8.644;2023-02-27T04:26:03;-4.80;99.90
7129;DHT22;3606;52.930;8.644;2023-02-27T04:28:44;-4.80;99.90
7129;DHT22;3606;52.930;8.644;2023-02-27T04:31:21;-4.70;99.90
7129;DHT22;3606;52.930;8.644;2023-02-27T04:33:59;-4.70;99.90
7129;DHT22;3606;52.930;8.644;2023-02-27T04:36:43;-4.70;99.90
7129;DHT22;3606;52.930;8.644;2023-02-27T04:39:36;-4.70;99.90
7129;DHT22;3606;52.930;8.644;2023-02-27T04:42:09;-4.70;99.90
7129;DHT22;3606;52.930;8.644;2023-02-27T04:44:36;-4.70;99.90
7129;DHT22;3606;52.930;8.644;2023-02-27T04:47:06;-4.70;99.90
7129;DHT22;3606;52.930;8.644;2023-02-27T04:49:43;-4.70;99.90
7129;DHT22;3606;52.930;8.644;2023-02-27T04:52:39;-4.70;99.90
7129;DHT22;3606;52.930;8.644;2023-02-27T04:55:24;-4.70;99.90
7129;DHT22;3606;52.930;8.644;2023-02-27T04:57:56;-4.80;99.90
7129;DHT22;3606;52.930;8.644;2023-02-27T05:00:24;-4.80;99.90
7129;DHT22;3606;52.930;8.644;2023-02-27T05:02:55;-4.70;99.90
7129;DHT22;3606;52.930;8.644;2023-02-27T05:05:29;-4.70;99.90
7129;DHT22;3606;52.930;8.644;2023-02-27T05:08:01;-4.70;99.90
7129;DHT22;3606;52.930;8.644;2023-02-27T05:13:04;-4.70;99.90
7129;DHT22;3606;52.930;8.644;2023-02-27T05:15:35;-4.80;99.90
7129;DHT22;3606;52.930;8.644;2023-02-27T05:18:08;-4.70;99.90
7129;DHT22;3606;52.930;8.644;2023-02-27T05:23:39;-4.70;99.90
7129;DHT22;3606;52.930;8.644;2023-02-27T05:26:17;-4.70;99.90
7129;DHT22;3606;52.930;8.644;2023-02-27T05:29:04;-4.70;99.90
7129;DHT22;3606;52.930;8.644;2023-02-27T05:31:56;-4.80;99.90
7129;DHT22;3606;52.930;8.644;2023-02-27T05:34:42;-4.80;99.90
7129;DHT22;3606;52.930;8.644;2023-02-27T05:37:19;-4.80;99.90
7129;DHT22;3606;52.930;8.644;2023-02-27T05:39:49;-4.90;99.90
7129;DHT22;3606;52.930;8.644;2023-02-27T05:42:23;-4.90;99.90
7129;DHT22;3606;52.930;8.644;2023-02-27T05:44:59;-4.90;99.90
7129;DHT22;3606;52.930;8.644;2023-02-27T05:47:28;-4.90;99.90
7129;DHT22;3606;52.930;8.644;2023-02-27T05:50:05;-4.90;99.90
7129;DHT22;3606;52.930;8.644;2023-02-27T05:52:34;-4.90;99.90
7129;DHT22;3606;52.930;8.644;2023-02-27T05:55:29;-4.90;99.90
7129;DHT22;3606;52.930;8.644;2023-02-27T05:58:09;-4.90;99.90
7129;DHT22;3606;52.930;8.644;2023-02-27T06:01:10;-4.90;99.90
7129;DHT22;3606;52.930;8.644;2023-02-27T06:03:30;-4.90;99.90
7129;DHT22;3606;52.930;8.644;2023-02-27T06:05:58;-4.80;99.90
7129;DHT22;3606;52.930;8.644;2023-02-27T06:08:25;-4.80;99.90
7129;DHT22;3606;52.930;8.644;2023-02-27T06:10:51;-4.70;99.90
7129;DHT22;3606;52.930;8.644;2023-02-27T06:13:17;-4.70;99.90
7129;DHT22;3606;52.930;8.644;2023-02-27T06:15:43;-4.70;99.90
7129;DHT22;3606;52.930;8.644;2023-02-27T06:18:10;-4.60;99.90
7129;DHT22;3606;52.930;8.644;2023-02-27T06:20:37;-4.60;99.90
7129;DHT22;3606;52.930;8.644;2023-02-27T06:23:03;-4.60;99.90
7129;DHT22;3606;52.930;8.644;2023-02-27T06:25:28;-4.60;99.90
7129;DHT22;3606;52.930;8.644;2023-02-27T06:27:54;-4.60;99.90
7129;DHT22;3606;52.930;8.644;2023-02-27T06:30:19;-4.60;99.90
7129;DHT22;3606;52.930;8.644;2023-02-27T06:32:45;-4.60;99.90
7129;DHT22;3606;52.930;8.644;2023-02-27T06:35:11;-4.60;99.90
7129;DHT22;3606;52.930;8.644;2023-02-27T06:37:37;-4.50;99.90
7129;DHT22;3606;52.930;8.644;2023-02-27T06:40:03;-4.60;99.90
7129;DHT22;3606;52.930;8.644;2023-02-27T06:42:30;-4.60;99.90
7129;DHT22;3606;52.930;8.644;2023-02-27T06:44:56;-4.50;99.90
7129;DHT22;3606;52.930;8.644;2023-02-27T06:47:22;-4.50;99.90
7129;DHT22;3606;52.930;8.644;2023-02-27T06:49:48;-4.40;99.90
7129;DHT22;3606;52.930;8.644;2023-02-27T06:52:13;-4.40;99.90
7129;DHT22;3606;52.930;8.644;2023-02-27T06:54:39;-4.40;99.90
7129;DHT22;3606;52.930;8.644;2023-02-27T06:57:05;-4.30;99.90
7129;DHT22;3606;52.930;8.644;2023-02-27T06:59:30;-4.30;99.90
7129;DHT22;3606;52.930;8.644;2023-02-27T07:01:56;-4.20;99.90
7129;DHT22;3606;52.930;8.644;2023-02-27T07:04:23;-4.20;99.90
7129;DHT22;3606;52.930;8.644;2023-02-27T07:06:49;-4.10;99.90
7129;DHT22;3606;52.930;8.644;2023-02-27T07:09:15;-4.00;99.90
7129;DHT22;3606;52.930;8.644;2023-02-27T07:11:40;-3.90;99.90
7129;DHT22;3606;52.930;8.644;2023-02-27T07:14:06;-3.70;99.90
7129;DHT22;3606;52.930;8.644;2023-02-27T07:16:32;-3.60;99.90
7129;DHT22;3606;52.930;8.644;2023-02-27T07:18:57;-3.50;99.90
7129;DHT22;3606;52.930;8.644;2023-02-27T07:21:23;-3.30;99.90
7129;DHT22;3606;52.930;8.644;2023-02-27T07:23:49;-3.10;99.90
7129;DHT22;3606;52.930;8.644;2023-02-27T07:26:14;-2.90;99.90
7129;DHT22;3606;52.930;8.644;2023-02-27T07:28:40;-2.70;99.90
7129;DHT22;3606;52.930;8.644;2023-02-27T07:31:05;-2.50;99.90
7129;DHT22;3606;52.930;8.644;2023-02-27T07:33:31;-1.90;99.90
7129;DHT22;3606;52.930;8.644;2023-02-27T07:35:58;-0.70;99.90
7129;DHT22;3606;52.930;8.644;2023-02-27T07:38:24;0.70;99.90
7129;DHT22;3606;52.930;8.644;2023-02-27T07:40:51;1.80;99.90
7129;DHT22;3606;52.930;8.644;2023-02-27T07:43:16;2.70;99.90
7129;DHT22;3606;52.930;8.644;2023-02-27T07:45:43;3.60;99.90
7129;DHT22;3606;52.930;8.644;2023-02-27T07:48:09;4.10;99.90
7129;DHT22;3606;52.930;8.644;2023-02-27T07:50:35;4.70;6.50
7129;DHT22;3606;52.930;8.644;2023-02-27T07:53:00;5.20;1.00
7129;DHT22;3606;52.930;8.644;2023-02-27T07:55:26;5.70;99.90
7129;DHT22;3606;52.930;8.644;2023-02-27T07:57:51;6.00;1.00
7129;DHT22;3606;52.930;8.644;2023-02-27T08:00:17;6.20;99.90
7129;DHT22;3606;52.930;8.644;2023-02-27T08:02:43;6.60;1.00
7129;DHT22;3606;52.930;8.644;2023-02-27T08:05:09;6.60;95.00
7129;DHT22;3606;52.930;8.644;2023-02-27T08:07:35;6.80;99.90
7129;DHT22;3606;52.930;8.644;2023-02-27T08:10:02;7.00;99.90
7129;DHT22;3606;52.930;8.644;2023-02-27T08:12:27;7.10;99.90
7129;DHT22;3606;52.930;8.644;2023-02-27T08:14:53;7.50;36.80
7129;DHT22;3606;52.930;8.644;2023-02-27T08:17:18;7.80;1.00
7129;DHT22;3606;52.930;8.644;2023-02-27T08:19:44;8.20;1.00
7129;DHT22;3606;52.930;8.644;2023-02-27T08:22:10;8.20;99.90
7129;DHT22;3606;52.930;8.644;2023-02-27T08:24:36;8.20;99.90
7129;DHT22;3606;52.930;8.644;2023-02-27T08:27:03;8.40;64.70
7129;DHT22;3606;52.930;8.644;2023-02-27T08:29:28;9.10;99.90
7129;DHT22;3606;52.930;8.644;2023-02-27T08:31:56;9.50;99.90
7129;DHT22;3606;52.930;8.644;2023-02-27T08:34:22;9.80;99.90
7129;DHT22;3606;52.930;8.644;2023-02-27T08:36:50;9.80;99.90
7129;DHT22;3606;52.930;8.644;2023-02-27T08:39:16;9.80;99.90
7129;DHT22;3606;52.930;8.644;2023-02-27T08:41:42;10.10;1.00
7129;DHT22;3606;52.930;8.644;2023-02-27T08:44:09;10.80;99.90
7129;DHT22;3606;52.930;8.644;2023-02-27T08:46:35;11.40;99.90
7129;DHT22;3606;52.930;8.644;2023-02-27T08:49:00;11.70;42.10
7129;DHT22;3606;52.930;8.644;2023-02-27T08:51:26;12.40;1.00
7129;DHT22;3606;52.930;8.644;2023-02-27T08:53:52;12.80;1.00
7129;DHT22;3606;52.930;8.644;2023-02-27T08:56:20;12.60;1.00
7129;DHT22;3606;52.930;8.644;2023-02-27T08:58:45;12.20;1.00
7129;DHT22;3606;52.930;8.644;2023-02-27T09:01:11;12.10;1.00
7129;DHT22;3606;52.930;8.644;2023-02-27T09:03:36;12.30;1.00
7129;DHT22;3606;52.930;8.644;2023-02-27T09:06:02;13.00;1.00
7129;DHT22;3606;52.930;8.644;2023-02-27T09:08:28;13.50;1.00
7129;DHT22;3606;52.930;8.644;2023-02-27T09:10:56;14.00;1.00
7129;DHT22;3606;52.930;8.644;2023-02-27T09:13:22;14.10;1.00
7129;DHT22;3606;52.930;8.644;2023-02-27T09:15:48;12.90;1.00
7129;DHT22;3606;52.930;8.644;2023-02-27T09:18:14;12.50;1.00
7129;DHT22;3606;52.930;8.644;2023-02-27T09:20:39;12.60;1.00
7129;DHT22;3606;52.930;8.644;2023-02-27T09:23:06;13.20;1.00
7129;DHT22;3606;52.930;8.644;2023-02-27T09:25:32;13.50;1.00
7129;DHT22;3606;52.930;8.644;2023-02-27T09:27:58;13.60;1.00
7129;DHT22;3606;52.930;8.644;2023-02-27T09:30:24;13.40;1.00
7129;DHT22;3606;52.930;8.644;2023-02-27T09:32:50;13.50;1.00
7129;DHT22;3606;52.930;8.644;2023-02-27T09:35:16;13.90;1.00
7129;DHT22;3606;52.930;8.644;2023-02-27T09:37:42;13.90;1.00
7129;DHT22;3606;52.930;8.644;2023-02-27T09:40:26;13.60;1.00
7129;DHT22;3606;52.930;8.644;2023-02-27T09:42:55;13.90;1.00
7129;DHT22;3606;52.930;8.644;2023-02-27T09:45:27;13.90;1.00
7129;DHT22;3606;52.930;8.644;2023-02-27T09:50:28;14.30;1.00
7129;DHT22;3606;52.930;8.644;2023-02-27T09:52:54;14.00;1.00
7129;DHT22;3606;52.930;8.644;2023-02-27T09:55:21;13.20;1.00
7129;DHT22;3606;52.930;8.644;2023-02-27T10:00:57;12.80;1.00
7129;DHT22;3606;52.930;8.644;2023-02-27T10:03:46;14.40;1.00
7129;DHT22;3606;52.930;8.644;2023-02-27T10:16:51;15.30;1.00
7129;DHT22;3606;52.930;8.644;2023-02-27T10:19:26;14.90;1.00
7129;DHT22;3606;52.930;8.644;2023-02-27T10:21:55;14.30;1.00
7129;DHT22;3606;52.930;8.644;2023-02-27T10:26:58;14.80;1.00
7129;DHT22;3606;52.930;8.644;2023-02-27T10:29:31;15.10;1.00
7129;DHT22;3606;52.930;8.644;2023-02-27T10:32:02;14.50;1.00
7129;DHT22;3606;52.930;8.644;2023-02-27T10:34:30;14.70;1.00
7129;DHT22;3606;52.930;8.644;2023-02-27T10:37:00;13.50;1.00
7129;DHT22;3606;52.930;8.644;2023-02-27T10:39:26;13.50;1.00
7129;DHT22;3606;52.930;8.644;2023-02-27T10:41:54;14.30;1.00
7129;DHT22;3606;52.930;8.644;2023-02-27T10:44:21;14.30;1.00
7129;DHT22;3606;52.930;8.644;2023-02-27T10:46:48;14.10;1.00
7129;DHT22;3606;52.930;8.644;2023-02-27T10:49:19;14.00;1.00
7129;DHT22;3606;52.930;8.644;2023-02-27T10:51:47;13.50;1.00
7129;DHT22;3606;52.930;8.644;2023-02-27T10:54:27;13.00;1.00
7129;DHT22;3606;52.930;8.644;2023-02-27T10:57:01;12.70;1.00
7129;DHT22;3606;52.930;8.644;2023-02-27T10:59:35;12.70;1.00
7129;DHT22;3606;52.930;8.644;2023-02-27T11:02:25;13.50;1.00
7129;DHT22;3606;52.930;8.644;2023-02-27T11:04:52;14.20;1.00
7129;DHT22;3606;52.930;8.644;2023-02-27T11:07:27;14.50;1.00
7129;DHT22;3606;52.930;8.644;2023-02-27T11:09:59;14.40;99.90
7129;DHT22;3606;52.930;8.644;2023-02-27T11:12:26;14.70;99.90
7129;DHT22;3606;52.930;8.644;2023-02-27T11:15:02;14.70;99.90
7129;DHT22;3606;52.930;8.644;2023-02-27T11:17:41;14.70;99.90
7129;DHT22;3606;52.930;8.644;2023-02-27T11:20:34;14.50;99.90
7129;DHT22;3606;52.930;8.644;2023-02-27T11:23:04;14.40;99.90
7129;DHT22;3606;52.930;8.644;2023-02-27T11:25:30;14.70;99.90
7129;DHT22;3606;52.930;8.644;2023-02-27T11:28:21;14.30;99.90
7129;DHT22;3606;52.930;8.644;2023-02-27T11:31:05;14.10;99.90
7129;DHT22;3606;52.930;8.644;2023-02-27T11:33:37;13.60;99.90
7129;DHT22;3606;52.930;8.644;2023-02-27T11:36:04;13.30;99.90
7129;DHT22;3606;52.930;8.644;2023-02-27T11:38:31;13.90;99.90
7129;DHT22;3606;52.930;8.644;2023-02-27T11:40:59;13.50;99.90
7129;DHT22;3606;52.930;8.644;2023-02-27T11:43:28;13.60;99.90
7129;DHT22;3606;52.930;8.644;2023-02-27T11:45:58;13.20;99.90
7129;DHT22;3606;52.930;8.644;2023-02-27T11:48:33;13.00;99.90
7129;DHT22;3606;52.930;8.644;2023-02-27T11:56:15;12.10;99.90
7129;DHT22;3606;52.930;8.644;2023-02-27T11:58:47;11.50;99.90
7129;DHT22;3606;52.930;8.644;2023-02-27T12:01:33;10.90;1.00
7129;DHT22;3606;52.930;8.644;2023-02-27T12:04:10;10.20;1.00
7129;DHT22;3606;52.930;8.644;2023-02-27T12:06:50;10.20;1.00
7129;DHT22;3606;52.930;8.644;2023-02-27T12:12:13;10.40;1.00
7129;DHT22;3606;52.930;8.644;2023-02-27T12:15:04;10.70;1.00
7129;DHT22;3606;52.930;8.644;2023-02-27T12:17:43;10.60;1.00
7129;DHT22;3606;52.930;8.644;2023-02-27T12:21:10;10.90;1.00
7129;DHT22;3606;52.930;8.644;2023-02-27T12:23:40;10.30;1.00
7129;DHT22;3606;52.930;8.644;2023-02-27T12:29:02;10.10;1.00
7129;DHT22;3606;52.930;8.644;2023-02-27T12:34:26;10.20;1.00
7129;DHT22;3606;52.930;8.644;2023-02-27T12:37:03;10.00;1.00
7129;DHT22;3606;52.930;8.644;2023-02-27T12:39:29;10.00;1.00
7129;DHT22;3606;52.930;8.644;2023-02-27T12:48:07;8.40;1.00
7129;DHT22;3606;52.930;8.644;2023-02-27T12:53:25;8.40;1.00
7129;DHT22;3606;52.930;8.644;2023-02-27T12:56:13;8.70;1.00
7129;DHT22;3606;52.930;8.644;2023-02-27T13:01:55;8.40;1.00
7129;DHT22;3606;52.930;8.644;2023-02-27T13:07:11;7.70;1.00
7129;DHT22;3606;52.930;8.644;2023-02-27T13:09:52;8.00;1.00
7129;DHT22;3606;52.930;8.644;2023-02-27T13:18:19;9.30;1.00
7129;DHT22;3606;52.930;8.644;2023-02-27T13:20:55;10.00;1.00
7129;DHT22;3606;52.930;8.644;2023-02-27T13:23:51;10.20;1.00
7129;DHT22;3606;52.930;8.644;2023-02-27T13:26:23;10.50;1.00
7129;DHT22;3606;52.930;8.644;2023-02-27T13:28:50;10.90;1.00
7129;DHT22;3606;52.930;8.644;2023-02-27T13:31:45;10.90;1.00
7129;DHT22;3606;52.930;8.644;2023-02-27T13:34:21;10.70;1.00
7129;DHT22;3606;52.930;8.644;2023-02-27T13:36:55;10.90;1.00
7129;DHT22;3606;52.930;8.644;2023-02-27T13:45:01;11.30;99.90
7129;DHT22;3606;52.930;8.644;2023-02-27T13:50:48;10.30;99.90
7129;DHT22;3606;52.930;8.644;2023-02-27T13:52:49;9.60;99.90
7129;DHT22;3606;52.930;8.644;2023-02-27T13:55:32;9.40;1.00
7129;DHT22;3606;52.930;8.644;2023-02-27T13:58:00;9.40;1.00
7129;DHT22;3606;52.930;8.644;2023-02-27T14:00:28;10.20;1.00
7129;DHT22;3606;52.930;8.644;2023-02-27T14:03:05;11.00;1.00
7129;DHT22;3606;52.930;8.644;2023-02-27T14:05:35;11.50;99.90
7129;DHT22;3606;52.930;8.644;2023-02-27T14:10:40;11.10;99.90
7129;DHT22;3606;52.930;8.644;2023-02-27T14:21:59;11.40;99.90
7129;DHT22;3606;52.930;8.644;2023-02-27T14:24:38;11.10;99.90
7129;DHT22;3606;52.930;8.644;2023-02-27T14:29:47;9.20;1.00
7129;DHT22;3606;52.930;8.644;2023-02-27T14:32:24;8.50;1.00
7129;DHT22;3606;52.930;8.644;2023-02-27T14:34:51;8.10;1.00
7129;DHT22;3606;52.930;8.644;2023-02-27T14:37:20;8.70;1.00
7129;DHT22;3606;52.930;8.644;2023-02-27T14:39:49;8.80;1.00
7129;DHT22;3606;52.930;8.644;2023-02-27T14:45:20;8.00;1.00
7129;DHT22;3606;52.930;8.644;2023-02-27T14:47:48;7.70;1.00
7129;DHT22;3606;52.930;8.644;2023-02-27T14:50:26;7.50;1.00
7129;DHT22;3606;52.930;8.644;2023-02-27T14:52:53;7.30;1.00
7129;DHT22;3606;52.930;8.644;2023-02-27T14:58:16;7.00;1.00
7129;DHT22;3606;52.930;8.644;2023-02-27T15:00:47;6.90;1.00
7129;DHT22;3606;52.930;8.644;2023-02-27T15:03:39;7.20;1.00
7129;DHT22;3606;52.930;8.644;2023-02-27T15:08:41;6.90;1.00
7129;DHT22;3606;52.930;8.644;2023-02-27T15:11:08;6.40;8.50
7129;DHT22;3606;52.930;8.644;2023-02-27T15:13:38;7.60;1.00
7129;DHT22;3606;52.930;8.644;2023-02-27T15:18:51;9.30;1.00
7129;DHT22;3606;52.930;8.644;2023-02-27T15:21:19;9.60;1.00
7129;DHT22;3606;52.930;8.644;2023-02-27T15:23:56;10.40;1.00
7129;DHT22;3606;52.930;8.644;2023-02-27T15:26:23;11.00;1.00
7129;DHT22;3606;52.930;8.644;2023-02-27T15:28:49;11.30;1.00
7129;DHT22;3606;52.930;8.644;2023-02-27T15:31:21;11.60;1.00
7129;DHT22;3606;52.930;8.644;2023-02-27T15:33:48;11.70;1.00
7129;DHT22;3606;52.930;8.644;2023-02-27T15:36:33;10.60;1.00
7129;DHT22;3606;52.930;8.644;2023-02-27T15:41:31;7.70;1.00
7129;DHT22;3606;52.930;8.644;2023-02-27T15:43:57;6.90;1.00
7129;DHT22;3606;52.930;8.644;2023-02-27T15:46:23;6.40;1.00
7129;DHT22;3606;52.930;8.644;2023-02-27T15:48:51;6.00;1.00
7129;DHT22;3606;52.930;8.644;2023-02-27T15:51:18;5.80;64.80
7129;DHT22;3606;52.930;8.644;2023-02-27T15:53:48;5.70;99.90
7129;DHT22;3606;52.930;8.644;2023-02-27T15:56:14;5.50;99.90
7129;DHT22;3606;52.930;8.644;2023-02-27T15:58:50;5.40;99.90
7129;DHT22;3606;52.930;8.644;2023-02-27T16:01:21;5.30;99.90
7129;DHT22;3606;52.930;8.644;2023-02-27T16:03:49;5.30;99.90
7129;DHT22;3606;52.930;8.644;2023-02-27T16:06:15;5.30;99.90
7129;DHT22;3606;52.930;8.644;2023-02-27T16:08:47;5.40;99.90
7129;DHT22;3606;52.930;8.644;2023-02-27T16:11:30;5.40;99.90
7129;DHT22;3606;52.930;8.644;2023-02-27T16:13:56;5.20;99.90
7129;DHT22;3606;52.930;8.644;2023-02-27T16:16:25;5.00;99.90
7129;DHT22;3606;52.930;8.644;2023-02-27T16:18:55;4.70;99.90
7129;DHT22;3606;52.930;8.644;2023-02-27T16:21:23;4.60;99.90
7129;DHT22;3606;52.930;8.644;2023-02-27T16:23:49;4.50;99.90
7129;DHT22;3606;52.930;8.644;2023-02-27T16:26:29;4.50;99.90
7129;DHT22;3606;52.930;8.644;2023-02-27T16:31:32;4.40;99.90
7129;DHT22;3606;52.930;8.644;2023-02-27T16:34:01;4.30;99.90
7129;DHT22;3606;52.930;8.644;2023-02-27T16:36:37;4.20;1.00
7129;DHT22;3606;52.930;8.644;2023-02-27T16:39:03;4.00;1.00
7129;DHT22;3606;52.930;8.644;2023-02-27T16:41:30;3.80;1.00
7129;DHT22;3606;52.930;8.644;2023-02-27T16:43:56;3.70;1.00
7129;DHT22;3606;52.930;8.644;2023-02-27T16:46:21;3.50;1.00
7129;DHT22;3606;52.930;8.644;2023-02-27T16:48:50;3.30;1.00
7129;DHT22;3606;52.930;8.644;2023-02-27T16:51:18;3.00;99.90
7129;DHT22;3606;52.930;8.644;2023-02-27T16:53:48;2.90;1.00
7129;DHT22;3606;52.930;8.644;2023-02-27T16:56:15;2.70;99.90
7129;DHT22;3606;52.930;8.644;2023-02-27T16:58:41;2.70;99.90
7129;DHT22;3606;52.930;8.644;2023-02-27T17:01:07;2.50;99.90
7129;DHT22;3606;52.930;8.644;2023-02-27T17:03:33;2.40;1.00
7129;DHT22;3606;52.930;8.644;2023-02-27T17:05:59;2.20;1.00
7129;DHT22;3606;52.930;8.644;2023-02-27T17:08:27;2.00;1.00
7129;DHT22;3606;52.930;8.644;2023-02-27T17:10:52;1.80;1.00
7129;DHT22;3606;52.930;8.644;2023-02-27T17:13:18;1.60;99.90
7129;DHT22;3606;52.930;8.644;2023-02-27T17:15:44;1.40;1.00
7129;DHT22;3606;52.930;8.644;2023-02-27T17:18:09;1.30;6.10
7129;DHT22;3606;52.930;8.644;2023-02-27T17:20:35;1.30;99.90
7129;DHT22;3606;52.930;8.644;2023-02-27T17:23:00;1.40;99.90
7129;DHT22;3606;52.930;8.644;2023-02-27T17:25:26;1.50;11.60
7129;DHT22;3606;52.930;8.644;2023-02-27T17:27:52;1.50;1.00
7129;DHT22;3606;52.930;8.644;2023-02-27T17:30:18;1.50;99.90
7129;DHT22;3606;52.930;8.644;2023-02-27T17:32:43;1.50;99.90
7129;DHT22;3606;52.930;8.644;2023-02-27T17:35:09;1.40;1.00
7129;DHT22;3606;52.930;8.644;2023-02-27T17:37:35;1.40;18.30
7129;DHT22;3606;52.930;8.644;2023-02-27T17:40:02;1.50;99.90
7129;DHT22;3606;52.930;8.644;2023-02-27T17:42:30;1.60;1.00
7129;DHT22;3606;52.930;8.644;2023-02-27T17:44:55;1.80;1.00
7129;DHT22;3606;52.930;8.644;2023-02-27T17:47:21;2.00;1.00
7129;DHT22;3606;52.930;8.644;2023-02-27T17:49:47;2.10;99.90
7129;DHT22;3606;52.930;8.644;2023-02-27T17:52:13;2.20;99.90
7129;DHT22;3606;52.930;8.644;2023-02-27T17:54:38;2.30;1.00
7129;DHT22;3606;52.930;8.644;2023-02-27T17:57:04;2.20;1.00
7129;DHT22;3606;52.930;8.644;2023-02-27T17:59:31;2.20;1.00
7129;DHT22;3606;52.930;8.644;2023-02-27T18:01:57;2.10;99.90
7129;DHT22;3606;52.930;8.644;2023-02-27T18:04:23;2.10;1.00
7129;DHT22;3606;52.930;8.644;2023-02-27T18:06:49;2.10;1.00
7129;DHT22;3606;52.930;8.644;2023-02-27T18:09:15;2.00;1.00
7129;DHT22;3606;52.930;8.644;2023-02-27T18:11:41;1.80;1.00
7129;DHT22;3606;52.930;8.644;2023-02-27T18:14:06;1.60;99.90
7129;DHT22;3606;52.930;8.644;2023-02-27T18:16:32;1.50;1.00
7129;DHT22;3606;52.930;8.644;2023-02-27T18:19:02;1.30;99.90
7129;DHT22;3606;52.930;8.644;2023-02-27T18:21:28;1.20;99.90
7129;DHT22;3606;52.930;8.644;2023-02-27T18:23:53;1.10;1.00
7129;DHT22;3606;52.930;8.644;2023-02-27T18:26:27;0.80;3.70
7129;DHT22;3606;52.930;8.644;2023-02-27T18:28:53;0.70;1.00
7129;DHT22;3606;52.930;8.644;2023-02-27T18:31:25;0.60;1.00
7129;DHT22;3606;52.930;8.644;2023-02-27T18:33:51;0.50;99.90
7129;DHT22;3606;52.930;8.644;2023-02-27T18:36:17;0.40;99.90
7129;DHT22;3606;52.930;8.644;2023-02-27T18:38:43;0.30;1.00
7129;DHT22;3606;52.930;8.644;2023-02-27T18:41:09;0.10;1.00
7129;DHT22;3606;52.930;8.644;2023-02-27T18:43:38;0.10;1.00
7129;DHT22;3606;52.930;8.644;2023-02-27T18:46:04;0.00;99.90
7129;DHT22;3606;52.930;8.644;2023-02-27T18:48:31;0.00;1.00
7129;DHT22;3606;52.930;8.644;2023-02-27T18:51:04;0.00;99.90
7129;DHT22;3606;52.930;8.644;2023-02-27T18:53:31;0.00;1.00